createdAt,value
2023-06-06T00:00:16.448Z,21.46
2023-06-06T00:02:21.136Z,21.43
2023-06-06T00:04:22.858Z,21.42
2023-06-06T00:06:25.831Z,21.41
2023-06-06T00:08:29.276Z,21.39
2023-06-06T00:10:31.317Z,21.38
2023-06-06T00:12:33.281Z,21.37
2023-06-06T00:14:35.059Z,21.37
2023-06-06T00:16:36.895Z,21.36
2023-06-06T00:18:40.106Z,21.36
2023-06-06T00:20:42.009Z,21.35
2023-06-06T00:22:43.985Z,21.34
2023-06-06T00:24:47.144Z,21.34
2023-06-06T00:26:48.757Z,21.33
2023-06-06T00:28:50.215Z,21.33
2023-06-06T00:30:51.869Z,21.31
2023-06-06T00:32:53.529Z,21.31
2023-06-06T00:34:55.594Z,21.30
2023-06-06T00:36:57.298Z,21.30
2023-06-06T00:38:58.816Z,21.28
2023-06-06T00:41:00.334Z,21.28
2023-06-06T00:43:01.921Z,21.27
2023-06-06T00:45:03.662Z,21.28
2023-06-06T00:47:05.920Z,21.27
2023-06-06T00:49:11.427Z,21.27
2023-06-06T00:51:13.126Z,21.27
2023-06-06T00:53:15.200Z,21.26
2023-06-06T00:55:17.683Z,21.25
2023-06-06T00:57:19.445Z,21.25
2023-06-06T00:59:24.267Z,21.23
2023-06-06T01:01:30.098Z,21.24
2023-06-06T01:03:32.532Z,21.23
2023-06-06T01:05:34.032Z,21.23
2023-06-06T01:07:36.669Z,21.22
2023-06-06T01:09:38.554Z,21.20
2023-06-06T01:12:03.278Z,21.20
2023-06-06T01:14:10.707Z,21.19
2023-06-06T01:16:18.741Z,21.17
2023-06-06T01:18:22.802Z,21.16
2023-06-06T01:20:25.141Z,21.18
2023-06-06T01:22:28.546Z,21.16
2023-06-06T01:24:30.278Z,21.13
2023-06-06T01:26:31.776Z,21.12
2023-06-06T01:28:33.317Z,21.10
2023-06-06T01:30:35.202Z,21.09
2023-06-06T01:33:00.838Z,21.06
2023-06-06T01:35:37.832Z,21.06
2023-06-06T01:37:49.875Z,21.05
2023-06-06T01:39:56.658Z,21.05
2023-06-06T01:41:59.206Z,21.05
2023-06-06T01:44:01.067Z,21.03
2023-06-06T01:46:02.917Z,21.02
2023-06-06T01:48:05.442Z,20.92
2023-06-06T01:50:08.804Z,21.01
2023-06-06T01:52:10.307Z,21.01
2023-06-06T01:54:12.188Z,21.01
2023-06-06T01:56:15.068Z,21.00
2023-06-06T01:58:18.109Z,21.00
2023-06-06T02:00:20.194Z,21.00
2023-06-06T02:02:21.781Z,20.99
2023-06-06T02:04:23.883Z,20.97
2023-06-06T02:06:25.525Z,20.97
2023-06-06T02:08:26.963Z,20.96
2023-06-06T02:10:28.492Z,20.81
2023-06-06T02:12:29.960Z,20.93
2023-06-06T02:14:31.406Z,20.93
2023-06-06T02:16:33.050Z,20.92
2023-06-06T02:18:34.641Z,20.92
2023-06-06T02:20:36.146Z,20.90
2023-06-06T02:22:38.502Z,20.90
2023-06-06T02:24:41.840Z,20.89
2023-06-06T02:26:43.569Z,20.87
2023-06-06T02:28:45.064Z,20.86
2023-06-06T02:30:46.884Z,20.86
2023-06-06T02:32:48.496Z,20.86
2023-06-06T02:34:50.084Z,20.85
2023-06-06T02:36:52.575Z,20.85
2023-06-06T02:38:54.059Z,20.85
2023-06-06T02:40:55.644Z,20.84
2023-06-06T02:42:57.121Z,20.83
2023-06-06T02:44:58.561Z,20.82
2023-06-06T02:47:00.060Z,20.83
2023-06-06T02:49:01.831Z,20.82
2023-06-06T02:51:04.339Z,20.81
2023-06-06T02:53:07.391Z,20.81
2023-06-06T02:55:08.973Z,20.80
2023-06-06T02:57:10.456Z,20.80
2023-06-06T02:59:12.125Z,20.78
2023-06-06T03:01:14.067Z,20.77
2023-06-06T03:03:15.575Z,20.77
2023-06-06T03:05:18.203Z,20.76
2023-06-06T03:07:21.384Z,20.75
2023-06-06T03:09:25.546Z,20.75
2023-06-06T03:11:27.032Z,20.74
2023-06-06T03:13:28.670Z,20.73
2023-06-06T03:15:30.319Z,20.72
2023-06-06T03:17:32.033Z,20.72
2023-06-06T03:19:33.545Z,20.72
2023-06-06T03:21:35.111Z,20.71
2023-06-06T03:23:36.553Z,20.70
2023-06-06T03:25:40.385Z,20.71
2023-06-06T03:27:42.919Z,20.69
2023-06-06T03:29:44.462Z,20.68
2023-06-06T03:31:45.952Z,20.67
2023-06-06T03:33:47.448Z,20.67
2023-06-06T03:35:48.897Z,20.68
2023-06-06T03:37:50.541Z,20.67
2023-06-06T03:39:52.018Z,20.67
2023-06-06T03:41:53.493Z,20.65
2023-06-06T03:43:55.295Z,20.66
2023-06-06T03:45:57.037Z,20.66
2023-06-06T03:47:58.637Z,20.64
2023-06-06T03:50:00.603Z,20.64
2023-06-06T03:52:02.054Z,20.63
2023-06-06T03:54:03.750Z,20.62
2023-06-06T03:56:06.001Z,20.62
2023-06-06T03:58:08.486Z,20.62
2023-06-06T04:00:14.787Z,20.57
2023-06-06T04:02:17.764Z,20.61
2023-06-06T04:04:19.917Z,20.59
2023-06-06T04:10:34.462Z,20.58
2023-06-06T04:12:36.112Z,20.57
2023-06-06T04:14:37.886Z,20.56
2023-06-06T04:16:41.501Z,20.57
2023-06-06T04:18:43.128Z,20.56
2023-06-06T04:20:45.564Z,20.56
2023-06-06T04:22:47.012Z,20.55
2023-06-06T04:24:48.584Z,20.54
2023-06-06T04:26:50.291Z,20.53
2023-06-06T04:28:54.228Z,20.53
2023-06-06T04:30:55.999Z,20.54
2023-06-06T04:32:58.004Z,20.53
2023-06-06T04:35:00.119Z,20.53
2023-06-06T04:37:05.293Z,20.53
2023-06-06T04:39:08.152Z,20.52
2023-06-06T04:41:32.846Z,20.53
2023-06-06T04:43:31.992Z,20.52
2023-06-06T04:45:33.625Z,20.52
2023-06-06T04:47:36.306Z,20.52
2023-06-06T04:49:39.834Z,20.51
2023-06-06T04:51:44.344Z,20.50
2023-06-06T04:53:46.131Z,20.51
2023-06-06T04:55:48.664Z,20.51
2023-06-06T04:57:50.195Z,20.50
2023-06-06T04:59:52.251Z,20.50
2023-06-06T05:01:56.400Z,20.49
2023-06-06T05:03:57.990Z,20.50
2023-06-06T05:05:59.547Z,20.49
2023-06-06T05:08:00.974Z,20.49
2023-06-06T05:12:09.101Z,20.48
2023-06-06T05:14:10.589Z,20.48
2023-06-06T05:16:12.398Z,20.48
2023-06-06T05:22:21.865Z,20.47
2023-06-06T05:24:23.400Z,20.46
2023-06-06T05:26:26.280Z,20.47
2023-06-06T05:28:28.738Z,20.46
2023-06-06T05:32:37.379Z,20.45
2023-06-06T05:36:46.187Z,20.41
2023-06-06T05:38:47.714Z,20.39
2023-06-06T05:40:49.204Z,20.37
2023-06-06T05:49:05.606Z,20.36
2023-06-06T05:51:09.821Z,20.36
2023-06-06T05:53:12.926Z,20.36
2023-06-06T05:55:27.930Z,20.37
2023-06-06T05:57:29.409Z,20.38
2023-06-06T05:59:31.254Z,20.38
2023-06-06T06:01:32.804Z,20.40
2023-06-06T06:03:34.621Z,20.40
2023-06-06T06:05:36.447Z,20.41
2023-06-06T06:07:38.912Z,20.40
2023-06-06T06:09:40.531Z,20.40
2023-06-06T06:11:42.179Z,20.39
2023-06-06T06:13:43.625Z,20.39
2023-06-06T06:15:45.115Z,20.38
2023-06-06T06:17:47.127Z,20.38
2023-06-06T06:21:55.091Z,20.38
2023-06-06T06:23:56.589Z,20.37
2023-06-06T06:25:58.190Z,20.37
2023-06-06T06:27:59.914Z,20.37
2023-06-06T06:30:03.159Z,20.37
2023-06-06T06:32:05.090Z,20.38
2023-06-06T06:34:06.657Z,20.37
2023-06-06T06:36:08.381Z,20.39
2023-06-06T06:38:10.098Z,20.39
2023-06-06T06:40:11.939Z,20.40
2023-06-06T06:42:13.503Z,20.42
2023-06-06T06:44:15.057Z,20.42
2023-06-06T06:46:16.563Z,20.43
2023-06-06T06:48:18.195Z,20.44
2023-06-06T06:50:19.826Z,20.43
2023-06-06T06:52:22.128Z,20.43
2023-06-06T06:54:25.423Z,20.45
2023-06-06T06:56:28.874Z,20.46
2023-06-06T06:58:35.010Z,20.47
2023-06-06T07:00:36.734Z,20.49
2023-06-06T07:02:40.668Z,20.50
2023-06-06T07:04:43.224Z,20.51
2023-06-06T07:06:45.136Z,20.53
2023-06-06T07:08:46.797Z,20.54
2023-06-06T07:10:49.174Z,20.53
2023-06-06T07:12:51.714Z,20.54
2023-06-06T07:14:53.248Z,20.56
2023-06-06T07:16:56.637Z,20.57
2023-06-06T07:18:59.500Z,20.56
2023-06-06T07:21:00.954Z,20.59
2023-06-06T07:23:03.900Z,20.61
2023-06-06T07:25:06.393Z,20.61
2023-06-06T07:27:10.411Z,20.62
2023-06-06T07:29:12.151Z,20.64
2023-06-06T07:31:14.533Z,20.67
2023-06-06T07:33:16.318Z,20.42
2023-06-06T07:35:20.597Z,20.69
2023-06-06T07:37:22.476Z,20.67
2023-06-06T07:39:24.154Z,20.67
2023-06-06T07:41:27.735Z,20.66
2023-06-06T07:43:29.286Z,20.66
2023-06-06T07:45:30.723Z,20.65
2023-06-06T07:47:32.294Z,20.64
2023-06-06T07:49:33.915Z,20.63
2023-06-06T07:51:35.402Z,20.61
2023-06-06T07:53:36.945Z,20.63
2023-06-06T07:55:38.997Z,20.63
2023-06-06T07:57:40.742Z,20.62
2023-06-06T07:59:43.310Z,20.65
2023-06-06T08:01:46.102Z,20.68
2023-06-06T08:03:52.027Z,20.70
2023-06-06T08:05:53.731Z,20.70
2023-06-06T08:07:55.850Z,20.72
2023-06-06T08:09:57.601Z,20.72
2023-06-06T08:11:59.458Z,20.74
2023-06-06T08:14:01.144Z,20.76
2023-06-06T08:16:02.606Z,20.77
2023-06-06T08:18:04.329Z,20.79
2023-06-06T08:20:09.818Z,20.79
2023-06-06T08:22:11.647Z,20.80
2023-06-06T08:24:13.204Z,20.80
2023-06-06T08:26:14.789Z,20.81
2023-06-06T08:28:16.432Z,20.83
2023-06-06T08:30:18.099Z,20.84
2023-06-06T08:32:19.822Z,20.84
2023-06-06T08:34:22.184Z,20.85
2023-06-06T08:36:23.604Z,20.86
2023-06-06T08:38:25.095Z,20.88
2023-06-06T08:40:26.849Z,20.89
2023-06-06T08:42:31.080Z,20.87
2023-06-06T08:44:32.797Z,20.87
2023-06-06T08:46:36.832Z,20.86
2023-06-06T08:48:39.544Z,20.87
2023-06-06T08:50:42.350Z,20.88
2023-06-06T08:52:43.913Z,20.88
2023-06-06T08:54:46.484Z,20.86
2023-06-06T08:56:48.734Z,20.87
2023-06-06T08:58:51.330Z,20.87
2023-06-06T09:00:52.960Z,20.89
2023-06-06T09:02:55.530Z,20.77
2023-06-06T09:04:57.545Z,20.85
2023-06-06T09:07:01.980Z,20.87
2023-06-06T09:09:03.638Z,20.87
2023-06-06T09:11:05.143Z,20.86
2023-06-06T09:13:08.479Z,20.87
2023-06-06T09:15:10.631Z,20.85
2023-06-06T09:17:18.445Z,20.87
2023-06-06T09:19:26.464Z,20.85
2023-06-06T09:21:34.370Z,20.85
2023-06-06T09:23:36.053Z,20.86
2023-06-06T09:25:43.371Z,20.88
2023-06-06T09:27:45.636Z,20.89
2023-06-06T09:29:47.164Z,20.90
2023-06-06T09:31:50.196Z,20.91
2023-06-06T09:33:55.955Z,20.90
2023-06-06T09:36:04.850Z,20.90
2023-06-06T09:38:08.846Z,20.90
2023-06-06T09:40:17.747Z,20.90
2023-06-06T09:42:19.318Z,20.92
2023-06-06T09:44:22.053Z,20.92
2023-06-06T09:46:24.618Z,20.94
2023-06-06T09:48:28.457Z,20.94
2023-06-06T09:50:30.273Z,20.95
2023-06-06T09:52:31.971Z,20.95
2023-06-06T09:54:33.786Z,20.96
2023-06-06T09:56:40.187Z,20.95
2023-06-06T09:58:42.258Z,20.97
2023-06-06T10:00:47.460Z,20.97
2023-06-06T10:02:49.590Z,20.98
2023-06-06T10:04:53.136Z,20.98
2023-06-06T10:06:55.493Z,20.99
2023-06-06T10:08:58.503Z,21.00
2023-06-06T10:11:00.040Z,20.99
2023-06-06T10:13:02.243Z,20.99
2023-06-06T10:15:04.641Z,20.98
2023-06-06T10:17:07.888Z,21.00
2023-06-06T10:19:09.829Z,21.02
2023-06-06T10:21:12.496Z,21.02
2023-06-06T10:23:14.387Z,21.02
2023-06-06T10:25:18.132Z,21.02
2023-06-06T10:27:22.115Z,21.03
2023-06-06T10:29:23.754Z,21.04
2023-06-06T10:31:28.810Z,21.03
2023-06-06T10:33:34.315Z,21.02
2023-06-06T10:35:37.945Z,21.04
2023-06-06T10:37:39.465Z,21.04
2023-06-06T10:39:42.960Z,21.05
2023-06-06T10:41:53.943Z,21.06
2023-06-06T10:43:55.897Z,21.06
2023-06-06T10:45:57.554Z,21.08
2023-06-06T10:48:02.237Z,21.08
2023-06-06T10:50:04.059Z,21.08
2023-06-06T10:52:06.335Z,21.08
2023-06-06T10:54:17.666Z,20.89
2023-06-06T10:56:31.962Z,21.10
2023-06-06T10:58:34.463Z,21.12
2023-06-06T11:00:36.826Z,21.14
2023-06-06T11:02:40.437Z,21.14
2023-06-06T11:04:42.031Z,21.16
2023-06-06T11:06:43.529Z,21.31
2023-06-06T11:08:50.791Z,21.34
2023-06-06T11:11:12.233Z,21.31
2023-06-06T11:13:27.334Z,21.31
2023-06-06T11:15:31.686Z,21.31
2023-06-06T11:18:03.050Z,21.32
2023-06-06T11:20:05.084Z,21.35
2023-06-06T11:22:06.620Z,21.41
2023-06-06T11:24:08.898Z,21.43
2023-06-06T11:26:13.425Z,21.45
2023-06-06T11:28:22.812Z,21.47
2023-06-06T11:30:27.248Z,21.52
2023-06-06T11:32:28.869Z,21.53
2023-06-06T11:34:33.448Z,21.54
2023-06-06T11:36:40.961Z,21.57
2023-06-06T11:38:43.164Z,21.61
2023-06-06T11:40:46.030Z,21.60
2023-06-06T11:42:48.145Z,21.65
2023-06-06T11:44:49.659Z,21.65
2023-06-06T11:46:52.324Z,21.67
2023-06-06T11:49:01.758Z,21.67
2023-06-06T11:51:15.819Z,21.68
2023-06-06T11:53:28.371Z,21.77
2023-06-06T11:55:39.644Z,21.86
2023-06-06T11:57:42.073Z,21.83
2023-06-06T11:59:45.308Z,21.85
2023-06-06T12:02:00.000Z,21.83
2023-06-06T12:04:01.881Z,21.85
2023-06-06T12:06:06.071Z,21.84
2023-06-06T12:08:07.922Z,21.80
2023-06-06T12:10:09.602Z,21.87
2023-06-06T12:12:11.701Z,21.94
2023-06-06T12:14:13.290Z,22.01
2023-06-06T12:16:22.084Z,22.04
2023-06-06T12:18:23.650Z,22.06
2023-06-06T12:20:27.970Z,22.10
2023-06-06T12:22:30.270Z,22.14
2023-06-06T12:24:32.789Z,22.15
2023-06-06T12:26:43.978Z,22.17
2023-06-06T12:28:59.085Z,22.21
2023-06-06T12:31:00.677Z,22.31
2023-06-06T12:33:04.138Z,22.38
2023-06-06T12:35:06.936Z,22.39
2023-06-06T12:37:11.025Z,22.41
2023-06-06T12:39:13.985Z,22.43
2023-06-06T12:41:15.454Z,22.56
2023-06-06T12:43:17.038Z,22.49
2023-06-06T12:45:19.278Z,22.66
2023-06-06T12:47:22.465Z,22.74
2023-06-06T12:49:23.974Z,22.80
2023-06-06T12:51:25.494Z,22.78
2023-06-06T12:53:28.057Z,22.83
2023-06-06T12:55:31.927Z,22.90
2023-06-06T12:57:33.654Z,23.01
2023-06-06T12:59:35.245Z,23.06
2023-06-06T13:01:36.931Z,23.13
2023-06-06T13:03:38.862Z,23.12
2023-06-06T13:05:40.926Z,23.23
2023-06-06T13:07:42.481Z,23.26
2023-06-06T13:09:43.998Z,23.26
2023-06-06T13:11:46.409Z,23.18
2023-06-06T13:13:48.522Z,23.39
2023-06-06T13:15:51.971Z,23.51
2023-06-06T13:17:53.660Z,23.50
2023-06-06T13:22:01.520Z,23.44
2023-06-06T13:24:03.343Z,23.43
2023-06-06T13:26:04.994Z,23.35
2023-06-06T13:34:21.846Z,23.28
2023-06-06T13:36:23.428Z,23.28
2023-06-06T13:38:24.983Z,23.32
2023-06-06T13:44:39.465Z,23.40
2023-06-06T13:46:58.358Z,23.41
2023-06-06T13:49:03.417Z,23.50
2023-06-06T13:51:05.556Z,23.52
2023-06-06T13:53:07.223Z,23.50
2023-06-06T13:55:09.745Z,23.55
2023-06-06T13:57:13.801Z,23.59
2023-06-06T13:59:17.139Z,23.56
2023-06-06T14:01:18.888Z,23.55
2023-06-06T14:03:20.760Z,23.52
2023-06-06T14:05:23.098Z,23.52
2023-06-06T14:07:25.045Z,23.51
2023-06-06T14:09:26.845Z,23.51
2023-06-06T14:11:28.399Z,23.49
2023-06-06T14:13:29.995Z,23.53
2023-06-06T14:15:31.502Z,23.60
2023-06-06T14:17:33.047Z,23.92
2023-06-06T14:19:38.461Z,23.98
2023-06-06T14:21:43.240Z,24.03
2023-06-06T14:23:48.054Z,24.07
2023-06-06T14:25:49.779Z,23.98
2023-06-06T14:27:51.530Z,24.02
2023-06-06T14:29:56.023Z,24.07
2023-06-06T14:31:58.928Z,24.07
2023-06-06T14:34:00.705Z,24.03
2023-06-06T14:36:02.476Z,24.04
2023-06-06T14:38:05.412Z,24.11
2023-06-06T14:40:07.354Z,24.16
2023-06-06T14:42:09.119Z,24.20
2023-06-06T14:44:10.745Z,24.23
2023-06-06T14:46:12.465Z,24.19
2023-06-06T14:48:13.943Z,24.17
2023-06-06T14:50:16.328Z,24.19
2023-06-06T14:52:17.832Z,24.17
2023-06-06T14:54:19.362Z,24.12
2023-06-06T14:56:21.154Z,24.05
2023-06-06T14:58:22.875Z,24.05
2023-06-06T15:00:25.011Z,24.04
2023-06-06T15:02:26.645Z,23.99
2023-06-06T15:04:35.643Z,24.00
2023-06-06T15:06:37.160Z,24.06
2023-06-06T15:08:38.788Z,24.06
2023-06-06T15:10:40.430Z,24.07
2023-06-06T15:12:42.008Z,24.07
2023-06-06T15:14:43.720Z,24.05
2023-06-06T15:16:45.385Z,24.04
2023-06-06T15:20:53.270Z,24.04
2023-06-06T15:22:57.266Z,24.01
2023-06-06T15:24:58.838Z,24.01
2023-06-06T15:27:01.461Z,24.02
2023-06-06T15:29:03.045Z,24.01
2023-06-06T15:31:04.625Z,24.03
2023-06-06T15:33:06.285Z,24.05
2023-06-06T15:35:08.134Z,24.05
2023-06-06T15:37:10.009Z,24.02
2023-06-06T15:39:11.667Z,24.01
2023-06-06T15:43:19.794Z,24.01
2023-06-06T15:45:21.378Z,24.04
2023-06-06T15:47:23.847Z,24.07
2023-06-06T15:49:25.435Z,24.07
2023-06-06T15:51:26.925Z,24.05
2023-06-06T15:53:28.416Z,24.04
2023-06-06T15:55:31.977Z,24.06
2023-06-06T15:57:33.442Z,24.07
2023-06-06T15:59:38.030Z,24.08
2023-06-06T16:01:39.919Z,24.07
2023-06-06T16:03:41.480Z,24.06
2023-06-06T16:05:43.013Z,24.06
2023-06-06T16:07:44.620Z,24.09
2023-06-06T16:09:46.162Z,24.12
2023-06-06T16:11:47.619Z,24.16
2023-06-06T16:13:49.360Z,24.17
2023-06-06T16:17:58.223Z,24.19
2023-06-06T16:19:59.800Z,24.19
2023-06-06T16:22:01.479Z,24.23
2023-06-06T16:24:04.434Z,24.23
2023-06-06T16:26:07.255Z,24.21
2023-06-06T16:28:08.860Z,24.20
2023-06-06T16:30:10.544Z,24.20
2023-06-06T16:32:13.162Z,24.21
2023-06-06T16:34:14.890Z,24.21
2023-06-06T16:36:17.265Z,24.21
2023-06-06T16:38:18.897Z,24.21
2023-06-06T16:42:26.889Z,24.26
2023-06-06T16:44:28.341Z,24.33
2023-06-06T16:46:30.035Z,24.40
2023-06-06T16:48:31.624Z,24.43
2023-06-06T16:50:33.423Z,24.47
2023-06-06T16:52:35.159Z,24.51
2023-06-06T16:54:37.682Z,24.52
2023-06-06T16:56:39.343Z,24.53
2023-06-06T16:58:40.985Z,24.51
2023-06-06T17:00:45.006Z,24.49
2023-06-06T17:02:49.432Z,24.48
2023-06-06T17:04:54.028Z,24.52
2023-06-06T17:06:55.813Z,24.53
2023-06-06T17:08:57.405Z,24.63
2023-06-06T17:10:59.067Z,24.58
2023-06-06T17:13:02.546Z,24.54
2023-06-06T17:15:04.115Z,24.60
2023-06-06T17:17:05.612Z,24.59
2023-06-06T17:19:07.162Z,24.63
2023-06-06T17:21:10.541Z,24.65
2023-06-06T17:23:12.820Z,24.60
2023-06-06T17:25:14.264Z,24.56
2023-06-06T17:27:16.326Z,24.49
2023-06-06T17:29:17.968Z,24.48
2023-06-06T17:31:19.573Z,24.46
2023-06-06T17:33:21.359Z,24.39
2023-06-06T17:35:22.860Z,24.37
2023-06-06T17:37:24.561Z,24.38
2023-06-06T17:39:26.209Z,24.34
2023-06-06T17:41:27.679Z,24.31
2023-06-06T17:43:29.429Z,24.26
2023-06-06T17:45:30.949Z,24.27
2023-06-06T17:47:32.632Z,24.26
2023-06-06T17:49:34.166Z,24.26
2023-06-06T17:51:35.758Z,24.23
2023-06-06T17:53:37.854Z,24.20
2023-06-06T17:55:39.488Z,24.21
2023-06-06T17:57:40.965Z,24.21
2023-06-06T17:59:42.868Z,24.24
2023-06-06T18:01:44.475Z,24.26
2023-06-06T18:03:47.236Z,24.26
2023-06-06T18:05:48.721Z,24.24
2023-06-06T18:09:55.174Z,24.23
2023-06-06T18:11:57.486Z,24.35
2023-06-06T18:13:58.963Z,24.41
2023-06-06T18:16:00.412Z,24.47
2023-06-06T18:18:02.048Z,24.48
2023-06-06T18:20:04.198Z,24.49
2023-06-06T18:22:05.742Z,24.51
2023-06-06T18:24:08.273Z,24.49
2023-06-06T18:26:09.815Z,24.45
2023-06-06T18:28:11.397Z,24.45
2023-06-06T18:30:14.311Z,24.46
2023-06-06T18:32:16.616Z,24.51
2023-06-06T18:34:18.298Z,24.60
2023-06-06T18:36:19.793Z,24.67
2023-06-06T18:42:36.443Z,24.72
2023-06-06T18:44:37.899Z,24.68
2023-06-06T18:46:39.550Z,24.64
2023-06-06T18:48:42.186Z,24.61
2023-06-06T18:54:59.253Z,24.76
2023-06-06T18:57:02.920Z,24.78
2023-06-06T18:59:08.750Z,24.87
2023-06-06T19:01:10.450Z,24.90
2023-06-06T19:03:12.176Z,24.93
2023-06-06T19:05:15.360Z,24.92
2023-06-06T19:07:17.118Z,24.99
2023-06-06T19:09:19.219Z,25.00
2023-06-06T19:11:21.995Z,24.98
2023-06-06T19:17:38.972Z,24.83
2023-06-06T19:19:41.270Z,24.90
2023-06-06T19:21:42.807Z,24.98
2023-06-06T19:23:46.087Z,24.99
2023-06-06T19:30:00.975Z,25.08
2023-06-06T19:32:03.726Z,25.10
2023-06-06T19:34:05.843Z,25.18
2023-06-06T19:36:07.767Z,25.19
2023-06-06T19:40:22.078Z,25.13
2023-06-06T19:42:23.652Z,25.22
2023-06-06T19:44:25.194Z,25.22
2023-06-06T19:46:26.807Z,25.17
2023-06-06T19:48:28.377Z,25.15
2023-06-06T19:50:29.830Z,25.12
2023-06-06T19:52:31.866Z,25.09
2023-06-06T19:54:33.469Z,25.15
2023-06-06T19:56:35.048Z,25.05
2023-06-06T19:58:36.588Z,25.10
2023-06-06T20:00:38.217Z,25.09
2023-06-06T20:02:40.030Z,25.06
2023-06-06T20:04:42.329Z,25.00
2023-06-06T20:06:43.831Z,25.06
2023-06-06T20:08:45.377Z,25.10
2023-06-06T20:10:46.861Z,25.12
2023-06-06T20:12:48.370Z,25.10
2023-06-06T20:14:49.871Z,25.08
2023-06-06T20:16:52.163Z,25.10
2023-06-06T20:18:53.741Z,25.04
2023-06-06T20:20:55.807Z,25.07
2023-06-06T20:22:57.378Z,25.02
2023-06-06T20:25:00.604Z,25.04
2023-06-06T20:29:12.510Z,25.04
2023-06-06T20:31:14.058Z,25.03
2023-06-06T20:33:15.658Z,25.00
2023-06-06T20:35:17.400Z,25.02
2023-06-06T20:37:18.996Z,24.87
2023-06-06T20:39:34.649Z,24.86
2023-06-06T20:41:36.515Z,24.79
2023-06-06T20:43:38.191Z,24.70
2023-06-06T20:45:40.039Z,24.61
2023-06-06T20:47:41.745Z,24.53
2023-06-06T20:49:43.753Z,24.49
2023-06-06T20:51:45.449Z,24.40
2023-06-06T20:53:46.922Z,24.32
2023-06-06T20:55:48.857Z,24.34
2023-06-06T20:57:51.828Z,24.26
2023-06-06T20:59:54.077Z,24.21
2023-06-06T21:01:57.025Z,24.17
2023-06-06T21:03:58.917Z,24.13
2023-06-06T21:06:00.448Z,24.09
2023-06-06T21:08:01.903Z,24.05
2023-06-06T21:10:04.304Z,24.00
2023-06-06T21:12:07.220Z,23.97
2023-06-06T21:14:08.725Z,23.93
2023-06-06T21:16:10.259Z,23.88
2023-06-06T21:18:11.853Z,23.85
2023-06-06T21:20:14.026Z,23.82
2023-06-06T21:22:15.754Z,23.77
2023-06-06T21:24:17.547Z,23.74
2023-06-06T21:26:19.239Z,23.70
2023-06-06T21:28:20.877Z,23.68
2023-06-06T21:30:22.366Z,23.64
2023-06-06T21:32:23.998Z,23.61
2023-06-06T21:34:25.604Z,23.59
2023-06-06T21:36:27.193Z,23.56
2023-06-06T21:38:28.854Z,23.52
2023-06-06T21:40:30.330Z,23.49
2023-06-06T21:42:31.924Z,23.46
2023-06-06T21:44:33.463Z,23.44
2023-06-06T21:46:35.891Z,23.40
2023-06-06T21:48:37.549Z,23.38
2023-06-06T21:50:39.063Z,23.35
2023-06-06T21:52:40.733Z,23.35
2023-06-06T21:54:42.447Z,23.33
2023-06-06T21:56:45.383Z,23.31
2023-06-06T21:58:47.121Z,23.30
2023-06-06T22:00:48.605Z,23.29
2023-06-06T22:02:50.189Z,23.26
2023-06-06T22:04:52.194Z,23.25
2023-06-06T22:06:53.629Z,23.22
2023-06-06T22:08:55.248Z,23.22
2023-06-06T22:10:57.524Z,23.21
2023-06-06T22:12:59.074Z,23.18
2023-06-06T22:15:00.692Z,23.17
2023-06-06T22:17:02.805Z,23.17
2023-06-06T22:19:04.522Z,23.14
2023-06-06T22:21:06.121Z,23.13
2023-06-06T22:23:07.651Z,23.11
2023-06-06T22:25:09.479Z,23.11
2023-06-06T22:27:11.055Z,23.08
2023-06-06T22:31:19.147Z,23.07
2023-06-06T22:33:20.699Z,23.06
2023-06-06T22:35:22.291Z,23.03
2023-06-06T22:37:25.761Z,23.03
2023-06-06T22:39:27.483Z,23.01
2023-06-06T22:41:28.939Z,23.00
2023-06-06T22:43:30.675Z,22.99
2023-06-06T22:45:32.165Z,22.97
2023-06-06T22:47:33.668Z,22.98
2023-06-06T22:49:35.424Z,22.97
2023-06-06T22:51:37.984Z,22.95
2023-06-06T22:53:39.470Z,22.95
2023-06-06T22:55:41.122Z,22.94
2023-06-06T22:57:42.631Z,22.94
2023-06-06T22:59:44.945Z,22.92
2023-06-06T23:01:46.519Z,22.91
2023-06-06T23:03:48.092Z,22.91
2023-06-06T23:05:50.431Z,22.90
2023-06-06T23:09:58.292Z,22.87
2023-06-06T23:11:59.833Z,22.85
2023-06-06T23:14:01.678Z,22.84
2023-06-06T23:16:03.711Z,22.84
2023-06-06T23:18:06.521Z,22.83
2023-06-06T23:20:10.553Z,22.80
2023-06-06T23:22:13.573Z,22.80
2023-06-06T23:24:15.060Z,22.78
2023-06-06T23:26:16.590Z,22.78
2023-06-06T23:28:18.697Z,22.76
2023-06-06T23:30:20.539Z,22.75
2023-06-06T23:32:22.031Z,22.74
2023-06-06T23:34:23.693Z,22.73
2023-06-06T23:36:25.210Z,22.74
2023-06-06T23:38:27.518Z,22.73
2023-06-06T23:40:28.968Z,22.71
2023-06-06T23:42:30.980Z,22.71
2023-06-06T23:44:32.696Z,22.71
2023-06-06T23:46:34.658Z,22.70
2023-06-06T23:48:36.146Z,22.69
2023-06-06T23:50:37.583Z,22.67
2023-06-06T23:52:39.182Z,22.67
2023-06-06T23:54:41.421Z,22.65
2023-06-06T23:56:42.878Z,22.66
2023-06-06T23:58:44.377Z,22.64
